Time;durP1;ratioP1;P1;durP2;ratioP2;P2;SDS_P1;SDS_P2;PMS_P1;PMS_P2;Temp;Humidity;BMP_temperature;BMP_pressure;BME280_temperature;BME280_humidity;BME280_pressure;Samples;Min_cycle;Max_cycle;Signal;HPM_P1;HPM_P2
2021/06/02 00:01:58;;;;;;;3.55;2.90;;;;;;;12.83;82.69;100279.39;1676633;85;20869;-73
2021/06/02 00:04:30;;;;;;;7.15;2.87;;;;;;;12.83;82.83;100276.76;1676403;84;21019;-72
2021/06/02 00:07:06;;;;;;;7.37;3.30;;;;;;;12.88;82.85;100280.84;1676676;85;21512;-73
2021/06/02 00:09:33;;;;;;;2.87;2.47;;;;;;;12.88;82.74;100292.69;1676387;84;20955;-73
2021/06/02 00:12:10;;;;;;;4.70;3.25;;;;;;;12.89;82.82;100303.56;1676520;84;21446;-73
2021/06/02 00:14:39;;;;;;;3.52;3.05;;;;;;;12.90;83.00;100303.45;1676323;84;21032;-74
2021/06/02 00:17:07;;;;;;;5.37;3.22;;;;;;;12.96;83.04;100303.45;1676456;85;21555;-72
2021/06/02 00:19:36;;;;;;;3.50;3.20;;;;;;;13.02;82.90;100299.05;1676490;84;21386;-73
2021/06/02 00:22:07;;;;;;;5.17;3.52;;;;;;;13.05;82.66;100292.27;1676886;85;20916;-73
2021/06/02 00:24:34;;;;;;;6.72;4.47;;;;;;;13.04;82.46;100292.72;1678121;85;21218;-72
2021/06/02 00:27:07;;;;;;;3.95;3.40;;;;;;;13.03;82.46;100298.12;1677867;85;20987;-71
2021/06/02 00:29:35;;;;;;;4.40;4.00;;;;;;;13.03;82.55;100289.73;1658944;85;21413;-72
2021/06/02 00:32:06;;;;;;;6.37;4.30;;;;;;;13.05;82.53;100293.58;1676375;84;20927;-71
2021/06/02 00:34:33;;;;;;;7.15;3.60;;;;;;;13.03;82.51;100294.17;1676415;84;21327;-72
2021/06/02 00:37:02;;;;;;;7.25;4.50;;;;;;;13.00;82.60;100304.42;1676399;84;21650;-73
2021/06/02 00:39:29;;;;;;;5.12;4.05;;;;;;;13.00;82.70;100296.53;1676428;85;20979;-74
2021/06/02 00:41:56;;;;;;;9.58;4.42;;;;;;;13.03;82.88;100306.02;1676304;85;20904;-71
2021/06/02 00:44:23;;;;;;;5.42;4.60;;;;;;;13.04;82.78;100305.88;1676298;84;21015;-71
2021/06/02 00:46:52;;;;;;;4.12;3.62;;;;;;;13.08;82.90;100306.50;1676406;84;20907;-71
2021/06/02 00:49:23;;;;;;;7.33;4.22;;;;;;;13.14;83.02;100309.13;1676206;84;21900;-72
2021/06/02 00:52:07;;;;;;;9.15;3.83;;;;;;;13.18;82.93;100307.45;1676640;85;20957;-71
2021/06/02 00:54:37;;;;;;;5.72;4.17;;;;;;;13.18;82.71;100308.77;1676260;85;21422;-71
2021/06/02 00:57:17;;;;;;;7.28;4.10;;;;;;;13.21;82.80;100308.56;1676346;84;21418;-72
2021/06/02 00:59:53;;;;;;;5.83;3.87;;;;;;;13.22;82.96;100306.27;1676400;84;20951;-72
2021/06/02 01:02:22;;;;;;;5.08;3.90;;;;;;;13.25;82.81;100307.38;1676627;85;21064;-72
2021/06/02 01:04:51;;;;;;;5.87;3.33;;;;;;;13.26;82.86;100306.89;1676342;85;20923;-73
2021/06/02 01:07:23;;;;;;;5.95;3.42;;;;;;;13.28;82.83;100305.02;1676506;84;20951;-72
2021/06/02 01:09:57;;;;;;;5.45;3.30;;;;;;;13.27;82.77;100300.20;1676373;85;20979;-73
2021/06/02 01:12:26;;;;;;;6.20;3.12;;;;;;;13.31;82.96;100303.45;1676705;84;20872;-72
2021/06/02 01:14:56;;;;;;;5.90;2.98;;;;;;;13.32;82.89;100298.56;1676371;84;21144;-72
2021/06/02 01:17:26;;;;;;;7.47;3.70;;;;;;;13.34;82.79;100297.97;1676783;84;20952;-71
2021/06/02 01:19:59;;;;;;;7.15;3.17;;;;;;;13.34;82.72;100296.66;1676200;84;20944;-71
2021/06/02 01:22:28;;;;;;;3.77;3.30;;;;;;;13.35;82.82;100300.12;1676571;85;20904;-71
2021/06/02 01:24:55;;;;;;;3.87;2.62;;;;;;;13.36;82.94;100300.46;1676419;85;20912;-71
2021/06/02 01:27:22;;;;;;;4.25;2.50;;;;;;;13.36;82.79;100302.64;1676635;84;22149;-72
2021/06/02 01:29:51;;;;;;;3.47;2.58;;;;;;;13.36;82.87;100303.09;1676379;85;20959;-71
2021/06/02 01:32:58;;;;;;;3.58;3.12;;;;;;;13.35;82.77;100306.70;1676817;84;21545;-72
2021/06/02 01:35:47;;;;;;;3.33;2.45;;;;;;;13.34;82.83;100302.38;1677456;84;21438;-72
2021/06/02 01:38:44;;;;;;;4.28;2.50;;;;;;;13.36;82.99;100307.91;1680108;85;21381;-72
2021/06/02 01:41:24;;;;;;;2.85;2.47;;;;;;;13.39;82.91;100314.25;1679812;85;21619;-72
2021/06/02 01:44:12;;;;;;;2.92;2.17;;;;;;;13.39;82.73;100313.41;1679754;85;20987;-72
2021/06/02 01:46:46;;;;;;;3.77;2.27;;;;;;;13.39;82.97;100301.08;1679027;85;21007;-73
2021/06/02 01:49:52;;;;;;;2.70;2.47;;;;;;;13.42;82.71;100302.14;1679417;85;20920;-73
2021/06/02 01:53:04;;;;;;;2.90;2.50;;;;;;;13.41;82.74;100297.02;1680018;85;21026;-72
2021/06/02 01:56:09;;;;;;;4.50;2.87;;;;;;;13.43;82.79;100299.89;1679761;85;21077;-72
2021/06/02 01:59:23;;;;;;;3.17;2.50;;;;;;;13.43;82.71;100284.57;1679823;85;20955;-72
2021/06/02 02:02:22;;;;;;;3.37;2.92;;;;;;;13.43;82.62;100287.20;1623294;88;21542;-72
2021/06/02 02:05:34;;;;;;;4.80;3.40;;;;;;;13.39;82.65;100280.48;1607540;89;21525;-72
2021/06/02 02:08:41;;;;;;;5.35;3.37;;;;;;;13.34;82.86;100276.03;1580242;89;21489;-71
2021/06/02 02:11:33;;;;;;;5.25;3.70;;;;;;;13.31;83.21;100285.02;1607573;87;21043;-70
2021/06/02 02:14:24;;;;;;;5.28;3.27;;;;;;;13.34;83.35;100282.16;1592469;88;21023;-71
2021/06/02 02:17:45;;;;;;;6.17;4.00;;;;;;;13.40;83.38;100282.16;1607697;88;21078;-73
2021/06/02 02:20:20;;;;;;;5.05;3.50;;;;;;;13.47;83.25;100286.84;1592997;88;20879;-73
2021/06/02 02:23:10;;;;;;;;;;;;;;;13.52;83.16;100293.53;1610345;87;21635;-73
2021/06/02 02:25:54;;;;;;;5.17;3.95;;;;;;;13.54;82.91;100292.48;1602602;87;21797;-74
2021/06/02 02:28:42;;;;;;;9.10;4.17;;;;;;;13.55;82.79;100287.55;1592384;88;21026;-73
2021/06/02 02:31:29;;;;;;;6.12;3.77;;;;;;;13.55;82.80;100285.41;1607066;89;20943;-73
2021/06/02 02:34:03;;;;;;;7.10;4.00;;;;;;;13.56;82.81;100276.08;1592959;88;20966;-73
2021/06/02 02:36:39;;;;;;;4.25;3.52;;;;;;;13.55;82.94;100270.42;1600982;87;21464;-73
2021/06/02 02:39:32;;;;;;;7.83;3.58;;;;;;;13.57;82.96;100269.00;1584158;88;21773;-73
2021/06/02 02:45:59;;;;;;;7.10;4.03;;;;;;;13.65;82.77;100258.67;1816594;79;22651;-73
2021/06/02 02:48:39;;;;;;;4.92;4.22;;;;;;;13.62;82.73;100259.77;1789783;80;20920;-76
2021/06/02 02:51:42;;;;;;;7.30;4.58;;;;;;;13.61;82.62;100247.56;1789455;80;21140;-74
2021/06/02 02:54:47;;;;;;;6.03;3.72;;;;;;;13.61;82.59;100255.47;1789549;80;20933;-73
2021/06/02 02:57:20;;;;;;;5.47;3.47;;;;;;;13.60;82.62;100255.58;1789900;80;20915;-72
2021/06/02 03:00:02;;;;;;;5.60;3.98;;;;;;;13.58;82.64;100255.69;1789644;80;20903;-72
2021/06/02 03:03:02;;;;;;;6.28;3.33;;;;;;;13.59;82.93;100255.23;1693625;84;21010;-72
2021/06/02 03:05:32;;;;;;;6.47;3.22;;;;;;;13.60;82.75;100261.67;1693313;84;20993;-72
2021/06/02 03:08:13;;;;;;;3.08;2.70;;;;;;;13.61;83.02;100254.15;1693453;83;20914;-73
2021/06/02 03:10:45;;;;;;;4.20;3.20;;;;;;;13.64;83.17;100253.89;1693554;84;21435;-72
2021/06/02 03:13:41;;;;;;;4.58;3.72;;;;;;;13.69;82.95;100253.53;1693743;84;20886;-72
2021/06/02 03:16:16;;;;;;;4.92;3.25;;;;;;;13.73;82.85;100254.97;1693543;84;21036;-71
2021/06/02 03:18:58;;;;;;;4.92;3.33;;;;;;;13.76;82.70;100246.84;1693665;84;21192;-72
2021/06/02 03:21:49;;;;;;;4.55;2.80;;;;;;;13.76;82.62;100253.42;1693453;84;20914;-72
2021/06/02 03:24:51;;;;;;;5.67;2.67;;;;;;;13.77;82.59;100247.67;1693482;83;21023;-73
2021/06/02 03:27:29;;;;;;;4.83;3.70;;;;;;;13.77;82.45;100243.72;1693652;84;21037;-72
2021/06/02 03:30:10;;;;;;;4.03;2.55;;;;;;;13.77;82.44;100245.86;1693849;84;20902;-73
2021/06/02 03:33:31;;;;;;;4.10;3.12;;;;;;;13.77;82.38;100247.18;1693611;84;21148;-72
2021/06/02 03:36:12;;;;;;;8.15;3.33;;;;;;;13.77;82.50;100253.77;1693763;84;20958;-72
2021/06/02 03:39:16;;;;;;;3.42;3.10;;;;;;;13.79;82.66;100250.53;1699442;80;21502;-73
2021/06/02 03:41:58;;;;;;;6.87;3.45;;;;;;;13.82;82.77;100243.69;1789617;80;21383;-73
2021/06/02 03:45:04;;;;;;;8.75;5.33;;;;;;;13.86;82.63;100243.81;1777242;80;20876;-74
2021/06/02 03:48:21;;;;;;;8.85;3.95;;;;;;;13.89;82.47;100240.95;1784280;80;20923;-72
2021/06/02 03:51:27;;;;;;;6.28;3.90;;;;;;;13.93;82.36;100244.64;1784235;80;20943;-73
2021/06/02 03:54:09;;;;;;;8.10;3.77;;;;;;;13.95;82.14;100253.27;1784148;80;21331;-73
2021/06/02 03:57:21;;;;;;;6.70;3.92;;;;;;;13.98;82.20;100248.56;1783798;80;20877;-72
2021/06/02 04:00:12;;;;;;;7.72;4.70;;;;;;;14.01;81.99;100246.20;1783722;80;21010;-74
2021/06/02 04:03:05;;;;;;;6.90;4.50;;;;;;;13.99;81.69;100250.75;1783618;80;21157;-73
2021/06/02 04:05:46;;;;;;;8.80;4.47;;;;;;;13.98;81.73;100254.33;1783573;80;21394;-72
2021/06/02 04:08:56;;;;;;;8.73;4.72;;;;;;;13.99;81.80;100254.70;1783632;80;21418;-72
2021/06/02 04:11:56;;;;;;;10.98;5.30;;;;;;;14.00;81.72;100259.83;1783691;80;20963;-72
2021/06/02 04:14:36;;;;;;;11.90;5.17;;;;;;;14.01;81.78;100261.53;1783669;80;20912;-72
2021/06/02 04:17:03;;;;;;;12.37;4.85;;;;;;;14.06;81.64;100277.80;1783361;80;21402;-73
2021/06/02 04:19:32;;;;;;;7.60;5.05;;;;;;;14.07;81.48;100266.77;1783587;80;21370;-73
2021/06/02 04:22:07;;;;;;;9.95;4.92;;;;;;;14.04;81.40;100263.91;1783611;80;20888;-71
2021/06/02 04:24:37;;;;;;;10.60;5.78;;;;;;;14.06;81.50;100263.30;1783558;80;21350;-72
2021/06/02 04:27:05;;;;;;;13.75;5.65;;;;;;;14.07;81.34;100268.95;1783637;80;20856;-74
2021/06/02 04:29:32;;;;;;;12.95;6.17;;;;;;;14.07;81.31;100273.36;1783645;80;21139;-72
2021/06/02 04:32:06;;;;;;;12.28;5.50;;;;;;;14.07;81.43;100265.00;1783653;80;20971;-73
2021/06/02 04:34:34;;;;;;;12.15;5.67;;;;;;;14.09;81.16;100264.84;1783916;80;20955;-75
2021/06/02 04:37:04;;;;;;;10.65;5.90;;;;;;;14.09;81.25;100268.80;1783592;80;20904;-73
2021/06/02 04:39:41;;;;;;;11.78;5.92;;;;;;;14.10;81.39;100282.36;1783646;80;20920;-77
2021/06/02 04:42:06;;;;;;;14.13;5.67;;;;;;;14.13;81.53;100285.23;1782367;80;21152;-73
2021/06/02 04:44:35;;;;;;;12.78;5.85;;;;;;;14.19;81.51;100291.34;1780068;80;21378;-72
2021/06/02 04:47:03;;;;;;;11.68;5.65;;;;;;;14.23;81.11;100291.45;1775044;80;20924;-76
2021/06/02 04:49:43;;;;;;;12.03;5.05;;;;;;;14.23;81.01;100298.05;1775419;80;20991;-76
2021/06/02 04:52:43;;;;;;;9.68;5.17;;;;;;;14.22;80.98;100301.63;1775378;80;20944;-72
2021/06/02 04:55:42;;;;;;;11.88;5.37;;;;;;;14.20;81.08;100300.42;1775622;80;21107;-73
2021/06/02 04:58:51;;;;;;;10.50;6.03;;;;;;;14.20;81.11;100303.06;1752825;80;21485;-74
2021/06/02 05:01:48;;;;;;;13.05;5.50;;;;;;;14.21;81.19;100289.41;1773907;80;20913;-73
2021/06/02 05:04:39;;;;;;;11.68;5.65;;;;;;;14.26;81.15;100292.02;1775296;80;20885;-72
2021/06/02 05:07:44;;;;;;;11.33;6.00;;;;;;;14.27;80.96;100288.44;1775179;80;21530;-72
2021/06/02 05:10:51;;;;;;;10.95;5.70;;;;;;;14.33;81.09;100296.32;1775503;80;21142;-76
2021/06/02 05:13:48;;;;;;;13.53;6.20;;;;;;;14.37;80.86;100296.44;1775463;80;21485;-73
2021/06/02 05:16:43;;;;;;;8.55;5.25;;;;;;;14.38;80.79;100299.41;1775205;80;20896;-74
2021/06/02 05:23:06;;;;;;;12.40;6.00;;;;;;;14.38;80.53;100304.69;1774911;80;20912;-75
2021/06/02 05:26:14;;;;;;;10.45;4.70;;;;;;;14.39;80.58;100300.28;1775368;80;21186;-71
2021/06/02 05:29:35;;;;;;;13.20;5.80;;;;;;;14.44;80.44;100307.33;1775253;80;20929;-72
2021/06/02 05:32:40;;;;;;;11.43;5.65;;;;;;;14.45;80.42;100301.94;1774943;80;21196;-71
2021/06/02 05:36:05;;;;;;;10.43;5.35;;;;;;;14.47;80.42;100306.61;1775129;80;20988;-72
2021/06/02 05:38:56;;;;;;;17.05;7.08;;;;;;;14.49;80.29;100305.97;1775479;80;20912;-70
2021/06/02 05:41:55;;;;;;;12.65;6.30;;;;;;;14.55;80.10;100305.17;1775283;80;21602;-73
2021/06/02 05:45:00;;;;;;;14.15;5.72;;;;;;;14.58;80.07;100315.47;1776958;80;20932;-73
2021/06/02 05:48:18;;;;;;;11.03;5.90;;;;;;;14.59;79.88;100315.84;1783870;80;20924;-74
2021/06/02 05:51:15;;;;;;;10.48;5.62;;;;;;;14.59;79.75;100327.22;1783553;80;20896;-74
2021/06/02 05:54:25;;;;;;;9.58;5.45;;;;;;;14.58;79.45;100327.34;1783818;80;20892;-73
2021/06/02 05:57:22;;;;;;;7.05;4.83;;;;;;;14.54;79.53;100321.92;1783757;80;22004;-71
2021/06/02 06:00:24;;;;;;;11.83;6.08;;;;;;;14.51;79.71;100322.52;1784053;80;20932;-72
2021/06/02 06:03:27;;;;;;;8.43;4.85;;;;;;;14.49;79.71;100320.48;1782812;80;20958;-73
2021/06/02 06:06:24;;;;;;;10.40;5.03;;;;;;;14.48;80.03;100314.87;1699796;83;21255;-70
2021/06/02 06:09:08;;;;;;;10.78;5.55;;;;;;;14.50;80.19;100302.88;1699512;84;20912;-71
2021/06/02 06:12:02;;;;;;;10.15;5.90;;;;;;;14.50;80.10;100307.67;1699576;84;21363;-71
2021/06/02 06:15:08;;;;;;;7.78;4.60;;;;;;;14.49;80.15;100303.34;1699324;84;21529;-69
2021/06/02 06:17:56;;;;;;;9.08;6.12;;;;;;;14.50;80.28;100306.84;1699465;83;20966;-73
2021/06/02 06:21:02;;;;;;;8.85;5.75;;;;;;;14.50;80.55;100312.95;1699315;84;21557;-73
2021/06/02 06:24:07;;;;;;;9.10;5.60;;;;;;;14.51;80.47;100314.61;1699533;83;20975;-71
2021/06/02 06:27:00;;;;;;;9.20;5.63;;;;;;;14.49;80.61;100319.66;1699842;84;21212;-72
2021/06/02 06:30:14;;;;;;;9.03;6.33;;;;;;;14.46;80.75;100322.06;1699564;84;21830;-71
2021/06/02 06:32:42;;;;;;;6.67;5.35;;;;;;;14.43;81.02;100317.05;1699475;84;20944;-72
2021/06/02 06:35:10;;;;;;;8.25;6.53;;;;;;;14.45;81.36;100321.73;1699513;83;20960;-71
2021/06/02 06:37:44;;;;;;;12.60;6.25;;;;;;;14.52;81.33;100322.06;1699484;84;20973;-75
2021/06/02 06:40:17;;;;;;;8.40;5.17;;;;;;;14.52;81.33;100322.06;1698433;82;21132;-72
2021/06/02 06:42:45;;;;;;;9.73;6.72;;;;;;;14.55;81.45;100321.00;1774919;80;21545;-73
2021/06/02 06:45:16;;;;;;;8.25;5.60;;;;;;;14.55;81.44;100323.64;1780245;80;20905;-72
2021/06/02 06:47:44;;;;;;;10.35;5.65;;;;;;;14.55;81.47;100320.52;1775123;80;21358;-73
2021/06/02 06:50:12;;;;;;;8.55;5.45;;;;;;;14.57;81.51;100319.91;1775311;80;20920;-72
2021/06/02 06:52:43;;;;;;;8.33;5.33;;;;;;;14.61;81.52;100322.66;1775297;80;21115;-71
2021/06/02 06:55:11;;;;;;;6.05;5.08;;;;;;;14.64;81.59;100321.56;1775191;80;20920;-71
2021/06/02 06:57:38;;;;;;;8.70;5.22;;;;;;;14.66;81.67;100322.28;1775422;80;21564;-72
2021/06/02 07:00:10;;;;;;;9.35;5.15;;;;;;;14.68;81.48;100322.51;1753488;80;20864;-72
2021/06/02 07:02:38;;;;;;;6.60;5.10;;;;;;;14.70;81.41;100321.07;1775465;80;21415;-72
2021/06/02 07:05:07;;;;;;;6.65;4.53;;;;;;;14.70;81.29;100323.71;1775107;80;21143;-72
2021/06/02 07:07:35;;;;;;;8.08;5.70;;;;;;;14.69;81.30;100322.84;1775442;80;20861;-72
2021/06/02 07:10:04;;;;;;;10.58;5.20;;;;;;;14.70;81.28;100334.27;1775236;80;21022;-72
2021/06/02 07:12:31;;;;;;;8.10;4.42;;;;;;;14.71;81.36;100331.97;1775405;80;21534;-72
2021/06/02 07:14:59;;;;;;;7.92;5.17;;;;;;;14.71;81.36;100331.97;1775245;80;20948;-72
2021/06/02 07:17:26;;;;;;;7.42;4.80;;;;;;;14.71;81.24;100328.84;1775404;80;21114;-74
2021/06/02 07:20:00;;;;;;;9.03;5.37;;;;;;;14.73;81.23;100328.73;1775289;80;20876;-72
2021/06/02 07:22:27;;;;;;;8.05;5.33;;;;;;;14.73;81.12;100336.64;1754800;80;20849;-72
2021/06/02 07:24:56;;;;;;;7.70;5.10;;;;;;;14.71;81.28;100332.80;1775428;80;21369;-74
2021/06/02 07:27:23;;;;;;;7.45;5.35;;;;;;;14.74;81.33;100336.16;1775146;80;20932;-72
2021/06/02 07:29:50;;;;;;;6.47;5.17;;;;;;;14.74;81.23;100334.84;1775204;80;21933;-72
2021/06/02 07:32:19;;;;;;;8.05;5.03;;;;;;;14.75;81.14;100338.68;1775346;80;21003;-72
2021/06/02 07:34:46;;;;;;;6.67;4.87;;;;;;;14.75;81.23;100338.68;1775420;80;20916;-72
2021/06/02 07:37:13;;;;;;;9.70;4.58;;;;;;;14.78;81.42;100342.37;1775504;80;20885;-71
2021/06/02 07:39:42;;;;;;;8.95;5.10;;;;;;;14.82;81.19;100344.30;1775350;80;20857;-72
2021/06/02 07:42:09;;;;;;;7.12;4.80;;;;;;;14.82;81.21;100342.48;1775848;80;21133;-73
2021/06/02 07:44:36;;;;;;;7.33;4.50;;;;;;;14.83;81.24;100340.22;1775177;80;20881;-72
2021/06/02 07:47:04;;;;;;;10.53;5.30;;;;;;;14.83;81.04;100348.14;1775284;80;20877;-72
2021/06/02 07:49:32;;;;;;;9.00;5.33;;;;;;;14.84;81.11;100346.33;1775320;80;20968;-73
2021/06/02 07:52:02;;;;;;;9.83;5.25;;;;;;;14.85;81.23;100350.17;1775413;80;20944;-74
2021/06/02 07:54:29;;;;;;;8.05;5.20;;;;;;;14.85;81.24;100350.17;1775683;80;21131;-72
2021/06/02 07:56:56;;;;;;;6.03;4.72;;;;;;;14.87;81.43;100347.39;1775312;80;20889;-73
2021/06/02 07:59:23;;;;;;;6.25;5.03;;;;;;;14.90;81.32;100342.70;1775504;80;21423;-72
2021/06/02 08:01:50;;;;;;;6.40;4.78;;;;;;;14.91;81.15;100341.72;1775340;80;21410;-71
2021/06/02 08:04:18;;;;;;;8.85;4.00;;;;;;;14.92;81.20;100342.58;1775247;80;20877;-71
2021/06/02 08:06:45;;;;;;;5.20;4.65;;;;;;;14.92;81.17;100340.77;1775353;80;21051;-73
2021/06/02 08:09:17;;;;;;;6.08;3.90;;;;;;;14.94;81.06;100339.34;1775158;80;20849;-71
2021/06/02 08:11:47;;;;;;;7.75;4.55;;;;;;;14.97;81.21;100338.23;1775334;80;20892;-70
2021/06/02 08:14:15;;;;;;;5.28;4.12;;;;;;;15.00;81.45;100332.69;1775474;80;20900;-72
2021/06/02 08:16:42;;;;;;;6.67;4.00;;;;;;;15.06;81.49;100336.98;1775277;80;21484;-71
2021/06/02 08:19:09;;;;;;;6.53;4.25;;;;;;;15.14;81.36;100341.64;1775624;80;21076;-72
2021/06/02 08:21:38;;;;;;;6.72;3.95;;;;;;;15.17;81.11;100344.02;1775329;80;20968;-72
2021/06/02 08:24:05;;;;;;;4.60;3.95;;;;;;;15.20;81.12;100341.59;1775584;80;20928;-73
2021/06/02 08:26:38;;;;;;;5.78;3.92;;;;;;;15.21;80.97;100336.19;1775200;80;21419;-72
2021/06/02 08:29:05;;;;;;;6.92;3.65;;;;;;;15.27;80.99;100345.39;1775586;80;20852;-71
2021/06/02 08:31:32;;;;;;;5.28;4.03;;;;;;;15.29;80.86;100340.32;1775264;80;21079;-73
2021/06/02 08:34:00;;;;;;;4.30;3.50;;;;;;;15.36;80.92;100340.64;1775413;80;20921;-71
2021/06/02 08:36:27;;;;;;;4.75;4.10;;;;;;;15.44;80.55;100347.94;1775243;80;20908;-72
2021/06/02 08:38:54;;;;;;;7.17;3.50;;;;;;;15.45;80.43;100344.31;1775185;80;20849;-72
2021/06/02 08:41:21;;;;;;;4.20;3.33;;;;;;;15.51;80.58;100346.44;1775316;80;20952;-71
2021/06/02 08:43:50;;;;;;;6.92;3.70;;;;;;;15.55;80.44;100343.89;1775223;80;22008;-72
2021/06/02 08:46:17;;;;;;;5.05;3.58;;;;;;;15.55;80.44;100343.89;1780056;80;20888;-71
2021/06/02 08:48:46;;;;;;;7.00;3.55;;;;;;;15.57;79.95;100348.56;1783460;80;21385;-71
2021/06/02 08:51:14;;;;;;;3.08;2.67;;;;;;;15.59;79.98;100352.41;1783470;80;20931;-71
2021/06/02 08:53:41;;;;;;;4.05;3.05;;;;;;;15.59;80.17;100353.73;1783616;80;20971;-71
2021/06/02 08:56:08;;;;;;;7.75;3.10;;;;;;;15.59;80.17;100353.73;1783834;80;21110;-72
2021/06/02 08:58:37;;;;;;;5.83;3.95;;;;;;;15.62;79.97;100352.14;1783542;80;21323;-72
2021/06/02 09:01:04;;;;;;;3.52;3.22;;;;;;;15.65;79.94;100355.37;1754032;80;20862;-72
2021/06/02 09:03:33;;;;;;;4.70;3.55;;;;;;;15.72;79.71;100355.22;1783483;80;20939;-72
2021/06/02 09:06:06;;;;;;;5.65;3.30;;;;;;;15.72;79.71;100355.22;1783840;80;20908;-72
2021/06/02 09:08:30;;;;;;;6.45;3.33;;;;;;;15.73;79.61;100362.16;1782968;80;21815;-72
2021/06/02 09:11:10;;;;;;;4.42;2.90;;;;;;;15.73;79.50;100363.48;1783404;80;21027;-71
2021/06/02 09:13:39;;;;;;;5.37;2.60;;;;;;;15.72;79.35;100372.41;1756219;80;20979;-71
2021/06/02 09:16:20;;;;;;;4.03;2.77;;;;;;;15.69;79.60;100367.33;1783821;80;21017;-71
2021/06/02 09:19:02;;;;;;;4.95;2.45;;;;;;;15.69;79.60;100367.33;1771567;80;20978;-70
2021/06/02 09:21:30;;;;;;;3.92;2.83;;;;;;;15.71;79.55;100377.32;1783716;80;20963;-71
2021/06/02 09:23:58;;;;;;;3.45;2.58;;;;;;;15.72;79.62;100379.50;1783502;80;21002;-71
2021/06/02 09:26:32;;;;;;;5.25;2.95;;;;;;;15.71;79.41;100380.45;1783647;80;20881;-71
2021/06/02 09:29:08;;;;;;;5.12;3.02;;;;;;;15.71;79.42;100380.45;1783684;80;20991;-71
2021/06/02 09:31:39;;;;;;;4.15;3.02;;;;;;;15.71;79.17;100390.54;1783432;80;20936;-72
2021/06/02 09:34:23;;;;;;;5.45;3.22;;;;;;;15.71;79.17;100390.54;1783575;80;21136;-73
2021/06/02 09:36:53;;;;;;;3.75;3.00;;;;;;;15.72;79.70;100385.63;1783655;80;20940;-73
2021/06/02 09:39:22;;;;;;;8.33;3.80;;;;;;;15.72;79.70;100385.63;1783398;80;20963;-75
2021/06/02 09:41:57;;;;;;;6.67;4.17;;;;;;;15.76;79.82;100390.14;1783441;80;20951;-75
2021/06/02 09:44:29;;;;;;;4.83;3.80;;;;;;;15.80;79.85;100397.34;1783436;80;20876;-72
2021/06/02 09:47:05;;;;;;;5.55;3.83;;;;;;;15.84;79.85;100402.73;1783780;80;21060;-73
2021/06/02 09:49:55;;;;;;;6.78;3.72;;;;;;;15.86;79.83;100398.15;1783724;80;20936;-71
2021/06/02 09:52:49;;;;;;;4.70;3.40;;;;;;;15.88;79.95;100406.79;1784083;80;20880;-70
2021/06/02 09:55:25;;;;;;;6.90;3.62;;;;;;;15.88;79.61;100404.14;1783715;80;21349;-70
2021/06/02 09:58:09;;;;;;;5.65;3.25;;;;;;;15.91;79.33;100406.02;1783870;80;20959;-70
2021/06/02 10:00:58;;;;;;;3.77;3.25;;;;;;;15.91;79.33;100406.02;1783800;80;20975;-72
2021/06/02 10:03:32;;;;;;;3.75;3.08;;;;;;;15.90;79.37;100405.68;1774108;80;20940;-71
2021/06/02 10:05:57;;;;;;;5.12;2.85;;;;;;;15.89;79.37;100413.73;1783541;80;21331;-74
2021/06/02 10:08:33;;;;;;;4.22;2.80;;;;;;;15.88;79.44;100422.16;1785397;80;21337;-75
2021/06/02 10:11:12;;;;;;;3.90;3.00;;;;;;;15.88;79.15;100416.87;1785263;80;20892;-76
2021/06/02 10:13:40;;;;;;;5.55;2.27;;;;;;;15.87;79.21;100425.76;1780534;80;21142;-76
2021/06/02 10:16:10;;;;;;;7.50;3.37;;;;;;;15.85;79.36;100426.41;1784063;80;21069;-75
2021/06/02 10:18:39;;;;;;;3.98;2.20;;;;;;;15.86;79.26;100422.78;1783758;80;21002;-76
2021/06/02 10:21:13;;;;;;;2.33;1.92;;;;;;;15.84;79.29;100430.00;1783805;80;20912;-75
2021/06/02 10:23:45;;;;;;;6.90;2.40;;;;;;;15.84;79.53;100431.81;1783823;80;21346;-75
2021/06/02 10:26:15;;;;;;;3.87;2.40;;;;;;;15.82;79.74;100435.91;1783682;80;21543;-75
2021/06/02 10:28:46;;;;;;;3.20;1.82;;;;;;;15.80;79.99;100431.72;1783643;80;20959;-75
2021/06/02 10:31:14;;;;;;;3.30;2.33;;;;;;;15.81;79.94;100436.89;1783715;80;20908;-75
2021/06/02 10:33:41;;;;;;;2.77;1.57;;;;;;;15.82;80.07;100444.33;1783610;80;20971;-77
2021/06/02 10:36:09;;;;;;;3.92;1.72;;;;;;;15.80;79.94;100440.48;1783742;80;20979;-76
2021/06/02 10:38:52;;;;;;;4.50;2.00;;;;;;;15.78;79.81;100444.23;1783724;80;21116;-77
2021/06/02 10:41:30;;;;;;;4.87;1.90;;;;;;;15.74;79.45;100447.14;1784047;80;20989;-77
2021/06/02 10:44:02;;;;;;;2.58;1.92;;;;;;;15.71;79.32;100457.13;1783880;80;21418;-79
2021/06/02 10:46:31;;;;;;;3.85;2.33;;;;;;;15.66;79.37;100456.16;1779875;80;26610;-80
2021/06/02 10:49:02;;;;;;;2.05;1.70;;;;;;;15.63;79.62;100458.21;1775252;80;20877;-80
2021/06/02 10:51:36;;;;;;;2.27;1.80;;;;;;;15.61;79.70;100457.05;1775198;80;21157;-78
2021/06/02 10:54:15;;;;;;;3.62;2.05;;;;;;;15.62;79.72;100453.91;1775217;80;20893;-78
2021/06/02 10:57:04;;;;;;;2.58;2.12;;;;;;;15.60;79.76;100451.38;1775198;80;20916;-79
2021/06/02 10:59:32;;;;;;;4.67;2.30;;;;;;;15.58;79.70;100457.28;1775194;80;20964;-78
2021/06/02 11:02:19;;;;;;;3.87;2.30;;;;;;;15.57;79.82;100461.39;1775305;80;20956;-80
2021/06/02 11:05:04;;;;;;;2.90;2.30;;;;;;;15.56;80.04;100464.50;1776262;80;20971;-80
2021/06/02 11:07:32;;;;;;;2.52;2.08;;;;;;;15.53;80.51;100458.16;1739936;82;20992;-77
2021/06/02 11:10:11;;;;;;;6.55;3.02;;;;;;;15.53;80.51;100458.16;1777460;80;20939;-79
2021/06/02 11:13:02;;;;;;;6.70;2.90;;;;;;;15.51;80.53;100464.05;1776294;80;20944;-79
2021/06/02 11:15:37;;;;;;;4.03;2.40;;;;;;;15.51;80.53;100464.05;1775510;80;20983;-78
2021/06/02 11:18:18;;;;;;;2.87;2.42;;;;;;;15.46;80.49;100464.44;1775488;80;20880;-79
2021/06/02 11:20:55;;;;;;;3.67;2.40;;;;;;;15.43;80.62;100462.52;1775541;80;20912;-80
2021/06/02 11:23:32;;;;;;;4.55;3.00;;;;;;;15.42;80.68;100466.97;1775623;80;21367;-80
2021/06/02 11:26:26;;;;;;;3.77;2.42;;;;;;;15.41;80.74;100461.34;1775328;80;21410;-80
2021/06/02 11:28:53;;;;;;;8.35;3.02;;;;;;;15.41;80.84;100465.80;1775616;80;20920;-79
2021/06/02 11:31:30;;;;;;;6.37;3.30;;;;;;;15.38;80.80;100470.83;1775336;80;21469;-76
2021/06/02 11:34:29;;;;;;;7.20;2.90;;;;;;;15.37;80.97;100465.69;1775315;80;20968;-76
2021/06/02 11:37:06;;;;;;;3.60;2.35;;;;;;;15.34;81.11;100463.66;1775741;80;20897;-77
2021/06/02 11:39:36;;;;;;;9.68;3.45;;;;;;;15.33;81.11;100465.92;1775578;80;20943;-75
2021/06/02 11:42:06;;;;;;;3.58;2.50;;;;;;;15.31;81.21;100473.63;1775323;80;20857;-77
2021/06/02 11:44:36;;;;;;;6.05;3.10;;;;;;;15.31;81.37;100470.98;1775405;80;20896;-72
2021/06/02 11:47:05;;;;;;;8.85;3.30;;;;;;;15.31;81.48;100471.81;1775562;80;20897;-75
2021/06/02 11:49:34;;;;;;;4.17;2.58;;;;;;;15.33;81.62;100471.21;1775544;80;21468;-77
2021/06/02 11:52:16;;;;;;;5.15;2.95;;;;;;;15.37;81.44;100470.48;1775335;80;20896;-76
2021/06/02 11:54:51;;;;;;;5.12;3.15;;;;;;;15.37;81.39;100477.59;1775490;80;21379;-75
2021/06/02 11:57:30;;;;;;;5.50;3.20;;;;;;;15.36;81.40;100471.92;1775491;80;21136;-75
2021/06/02 11:59:58;;;;;;;8.13;2.80;;;;;;;15.35;81.48;100477.70;1775647;80;21042;-77
2021/06/02 12:02:25;;;;;;;6.33;2.70;;;;;;;15.34;81.57;100483.97;1775653;80;21440;-75
2021/06/02 12:04:52;;;;;;;2.50;2.30;;;;;;;15.34;81.62;100480.00;1775395;80;20932;-75
2021/06/02 12:07:27;;;;;;;3.87;2.50;;;;;;;15.34;81.46;100478.68;1775333;80;20943;-79
2021/06/02 12:09:57;;;;;;;3.22;2.83;;;;;;;15.31;81.53;100481.06;1775730;80;21182;-78
2021/06/02 12:12:26;;;;;;;6.87;3.60;;;;;;;15.30;81.69;100476.76;1775303;80;20916;-80
2021/06/02 12:14:56;;;;;;;3.47;3.17;;;;;;;15.31;81.68;100488.98;1753168;80;20932;-78
2021/06/02 12:17:33;;;;;;;7.53;2.90;;;;;;;15.31;81.68;100488.98;1774872;80;21442;-77
2021/06/02 12:20:05;;;;;;;4.50;3.30;;;;;;;15.31;82.00;100483.70;1775396;80;20982;-77
2021/06/02 12:22:32;;;;;;;6.87;2.95;;;;;;;15.34;81.93;100483.47;1775457;80;21215;-78
2021/06/02 12:25:13;;;;;;;3.98;3.33;;;;;;;15.34;81.93;100483.47;1775295;80;20963;-76
2021/06/02 12:27:56;;;;;;;4.12;2.67;;;;;;;15.41;81.98;100489.58;1775564;80;20967;-79